Time;durP1;ratioP1;P1;durP2;ratioP2;P2;SDS_P1;SDS_P2;PMS_P1;PMS_P2;Temp;Humidity;BMP_temperature;BMP_pressure;BME280_temperature;BME280_humidity;BME280_pressure;Samples;Min_cycle;Max_cycle;Signal;HPM_P1;HPM_P2
2020/12/23 00:00:55;;;;;;;36.15;23.30;;;9.50;99.90;;;;;;5050428;28;20033;-93
2020/12/23 00:03:24;;;;;;;31.65;19.75;;;9.60;99.90;;;;;;5059522;28;20068;-93
2020/12/23 00:06:00;;;;;;;33.72;19.50;;;9.50;99.90;;;;;;5060083;28;20039;-92
2020/12/23 00:08:33;;;;;;;30.77;19.52;;;9.60;99.90;;;;;;5040819;28;20037;-92
2020/12/23 00:11:20;;;;;;;26.83;18.42;;;9.60;99.90;;;;;;5039811;28;20041;-92
2020/12/23 00:13:56;;;;;;;25.17;16.85;;;9.60;99.90;;;;;;5047351;28;20456;-92
2020/12/23 00:16:28;;;;;;;25.42;16.77;;;9.60;99.90;;;;;;5069654;28;20037;-95
2020/12/23 00:19:01;;;;;;;23.77;15.60;;;9.70;99.90;;;;;;5059395;28;20017;-95
2020/12/23 00:21:32;;;;;;;23.38;15.25;;;9.70;99.90;;;;;;5058698;28;20107;-93
2020/12/23 00:24:24;;;;;;;;;;;;;;;;;;;;;
2020/12/23 00:30:22;;;;;;;;;;;;;;;;;;;;;
2020/12/23 00:32:51;;;;;;;26.92;17.20;;;9.80;99.90;;;;;;5060302;28;20124;-94
2020/12/23 00:35:34;;;;;;;27.52;16.88;;;9.80;99.90;;;;;;5055010;28;20061;-92
2020/12/23 00:38:16;;;;;;;28.38;17.95;;;9.80;99.90;;;;;;5059552;28;20120;-95
2020/12/23 00:41:05;;;;;;;26.92;16.52;;;9.80;99.90;;;;;;5057393;28;20320;-93
2020/12/23 00:43:41;;;;;;;26.02;15.40;;;9.80;99.90;;;;;;5043926;28;20033;-93
2020/12/23 00:46:16;;;;;;;26.95;15.60;;;9.80;99.90;;;;;;5058492;28;20083;-92
2020/12/23 00:48:59;;;;;;;25.50;16.42;;;9.80;99.90;;;;;;5048085;28;20065;-94
2020/12/23 00:51:34;;;;;;;25.77;15.98;;;9.80;99.90;;;;;;5037905;28;20073;-92
2020/12/23 00:54:00;;;;;;;;;;;9.90;99.90;;;;;;5054949;28;20063;-92
2020/12/23 00:56:29;;;;;;;25.08;13.90;;;9.80;99.90;;;;;;5063828;28;19904;-93
2020/12/23 00:58:59;;;;;;;26.00;14.68;;;9.80;99.90;;;;;;5060237;28;20037;-93
2020/12/23 01:01:28;;;;;;;24.75;15.32;;;9.90;99.90;;;;;;5062184;28;20040;-93
2020/12/23 01:04:13;;;;;;;23.73;14.50;;;9.90;99.90;;;;;;5060613;28;20029;-93
2020/12/23 01:06:53;;;;;;;22.75;15.02;;;9.90;99.90;;;;;;5062681;28;20128;-93
2020/12/23 01:09:23;;;;;;;23.92;15.18;;;9.90;99.90;;;;;;5043918;28;20090;-94
2020/12/23 01:11:53;;;;;;;23.23;15.45;;;9.90;99.90;;;;;;5058737;28;20051;-93
2020/12/23 01:14:20;;;;;;;26.90;16.30;;;9.90;99.90;;;;;;5051061;28;20363;-93
2020/12/23 01:16:46;;;;;;;24.88;14.88;;;9.90;99.90;;;;;;5036577;28;20041;-92
2020/12/23 01:19:20;;;;;;;24.05;15.40;;;9.90;99.90;;;;;;5046188;28;20107;-93
2020/12/23 01:21:48;;;;;;;24.88;15.40;;;9.90;99.90;;;;;;5059794;28;20079;-92
2020/12/23 01:24:37;;;;;;;23.40;15.00;;;9.90;99.90;;;;;;5058731;28;20132;-94
2020/12/23 01:27:03;;;;;;;25.27;15.55;;;10.00;99.90;;;;;;5058168;28;20033;-91
2020/12/23 01:30:13;;;;;;;25.98;16.10;;;10.00;99.90;;;;;;5060194;28;20132;-93
2020/12/23 01:32:38;;;;;;;28.13;16.23;;;10.00;99.90;;;;;;5060051;28;20069;-94
2020/12/23 01:35:11;;;;;;;28.98;17.05;;;9.90;99.90;;;;;;5060041;28;20033;-93
2020/12/23 01:37:43;;;;;;;30.33;17.58;;;10.00;99.90;;;;;;5043669;28;20053;-94
2020/12/23 01:40:17;;;;;;;37.50;20.58;;;10.00;99.90;;;;;;5023016;28;20529;-94
2020/12/23 01:42:48;;;;;;;39.85;22.00;;;10.00;99.90;;;;;;5041819;28;20080;-93
2020/12/23 01:45:20;;;;;;;31.80;19.42;;;10.00;99.90;;;;;;5025595;28;20124;-94
2020/12/23 01:47:54;;;;;;;30.95;18.00;;;10.00;99.90;;;;;;5023561;28;20068;-93
2020/12/23 01:50:21;;;;;;;30.13;17.45;;;9.90;99.90;;;;;;5023256;28;20132;-92
2020/12/23 01:52:55;;;;;;;28.40;16.88;;;10.00;99.90;;;;;;5022236;28;20087;-93
2020/12/23 01:55:23;;;;;;;30.95;16.75;;;10.00;99.90;;;;;;5021410;28;20497;-93
2020/12/23 01:57:50;;;;;;;29.65;17.40;;;10.00;99.90;;;;;;5037722;28;20064;-95
2020/12/23 02:00:24;;;;;;;28.45;15.63;;;10.00;99.90;;;;;;5039117;28;20124;-94
2020/12/23 02:02:55;;;;;;;;;;;10.00;99.90;;;;;;5062154;28;20040;-94
2020/12/23 02:05:29;;;;;;;26.63;14.73;;;10.00;99.90;;;;;;5042157;28;19904;-94
2020/12/23 02:08:01;;;;;;;30.35;16.45;;;10.00;99.90;;;;;;5043162;28;20033;-94
2020/12/23 02:10:32;;;;;;;30.27;16.00;;;10.00;99.90;;;;;;5039652;28;20036;-93
2020/12/23 02:13:09;;;;;;;28.65;15.48;;;10.00;99.90;;;;;;5037578;28;20079;-92
2020/12/23 02:15:38;;;;;;;31.50;17.13;;;10.00;99.90;;;;;;5037895;28;20120;-92
2020/12/23 02:18:15;;;;;;;30.33;15.27;;;10.00;99.90;;;;;;5038553;28;20537;-93
2020/12/23 02:20:41;;;;;;;27.45;15.50;;;10.00;99.90;;;;;;5037965;28;20068;-92
2020/12/23 02:23:39;;;;;;;32.25;16.65;;;10.00;99.90;;;;;;5037771;28;20037;-92
2020/12/23 02:26:05;;;;;;;34.95;17.83;;;10.00;99.90;;;;;;5037313;28;20037;-92
2020/12/23 02:28:41;;;;;;;33.30;17.35;;;10.00;99.90;;;;;;5036802;28;20036;-91
2020/12/23 02:31:07;;;;;;;32.47;17.33;;;10.00;99.90;;;;;;5034522;28;20100;-92
2020/12/23 02:33:39;;;;;;;33.75;17.65;;;10.00;99.90;;;;;;5037278;28;20424;-92
2020/12/23 02:36:05;;;;;;;32.85;17.63;;;10.10;99.90;;;;;;5039645;28;20114;-93
2020/12/23 02:38:31;;;;;;;34.40;17.60;;;10.10;99.90;;;;;;5052629;28;20474;-92
2020/12/23 02:41:05;;;;;;;33.28;18.58;;;10.10;99.90;;;;;;5050336;28;20037;-93
2020/12/23 02:43:31;;;;;;;31.83;17.38;;;10.10;99.90;;;;;;5037751;28;20473;-92
2020/12/23 02:46:01;;;;;;;31.58;17.13;;;10.10;99.90;;;;;;5050920;28;20117;-92
2020/12/23 02:48:27;;;;;;;33.83;17.40;;;10.10;99.90;;;;;;5044752;28;20119;-93
2020/12/23 02:50:57;;;;;;;35.80;17.65;;;10.10;99.90;;;;;;5053638;28;20168;-92
2020/12/23 02:53:23;;;;;;;31.98;16.98;;;10.20;99.90;;;;;;5052365;28;20064;-92
2020/12/23 02:55:54;;;;;;;31.90;16.75;;;10.10;99.90;;;;;;5053784;28;20489;-92
2020/12/23 02:58:31;;;;;;;41.50;18.13;;;10.20;99.90;;;;;;5059251;28;20033;-94
2020/12/23 03:01:10;;;;;;;35.08;16.83;;;10.20;99.90;;;;;;5054668;28;20029;-93
2020/12/23 03:03:44;;;;;;;34.42;16.75;;;10.20;99.90;;;;;;5053996;28;20101;-92
2020/12/23 03:06:10;;;;;;;41.47;17.60;;;10.20;99.90;;;;;;5053722;28;20115;-92
2020/12/23 03:08:36;;;;;;;41.05;18.83;;;10.20;99.90;;;;;;5053617;28;20168;-91
2020/12/23 03:11:11;;;;;;;40.50;18.55;;;10.20;99.90;;;;;;5054403;28;20041;-92
2020/12/23 03:13:39;;;;;;;34.85;16.85;;;10.20;99.90;;;;;;5054319;28;20044;-93
2020/12/23 03:16:05;;;;;;;41.83;18.67;;;10.20;99.90;;;;;;5054593;28;20041;-93
2020/12/23 03:18:31;;;;;;;41.05;18.75;;;10.20;99.90;;;;;;5053879;28;20037;-92
2020/12/23 03:20:57;;;;;;;40.33;17.70;;;10.20;99.90;;;;;;5053258;28;20037;-92
2020/12/23 03:23:23;;;;;;;41.10;17.92;;;10.20;99.90;;;;;;5053443;28;20045;-92
2020/12/23 03:25:51;;;;;;;46.60;18.75;;;10.20;99.90;;;;;;5053561;28;20047;-93
2020/12/23 03:28:16;;;;;;;49.40;19.80;;;10.20;99.90;;;;;;5053362;28;20033;-92
2020/12/23 03:30:46;;;;;;;45.53;19.17;;;10.30;99.90;;;;;;5053304;28;20132;-92
2020/12/23 03:33:11;;;;;;;42.05;18.58;;;10.20;99.90;;;;;;5053018;28;20041;-93
2020/12/23 03:35:42;;;;;;;43.22;18.27;;;10.30;99.90;;;;;;5052895;28;20041;-93
2020/12/23 03:38:09;;;;;;;39.25;18.70;;;10.20;99.90;;;;;;5054061;28;20025;-93
2020/12/23 03:40:37;;;;;;;52.00;21.45;;;10.30;99.90;;;;;;5052233;28;20036;-92
2020/12/23 03:43:26;;;;;;;50.33;23.08;;;10.30;99.90;;;;;;5054376;28;20041;-92
2020/12/23 03:45:52;;;;;;;54.35;21.73;;;10.30;99.90;;;;;;5054166;28;20099;-92
2020/12/23 03:48:18;;;;;;;49.33;19.05;;;10.30;99.90;;;;;;5053673;28;20033;-92
2020/12/23 03:50:45;;;;;;;48.90;21.30;;;10.30;99.90;;;;;;5053776;28;20037;-92
2020/12/23 03:53:13;;;;;;;53.10;21.90;;;10.30;99.90;;;;;;5053467;28;20040;-92
2020/12/23 03:55:39;;;;;;;51.88;20.38;;;10.30;99.90;;;;;;5052375;28;20068;-92
2020/12/23 03:58:09;;;;;;;53.20;22.05;;;10.30;99.90;;;;;;5053820;28;20037;-92
2020/12/23 04:00:37;;;;;;;51.50;23.13;;;10.30;99.90;;;;;;5057171;28;20044;-92
2020/12/23 04:03:03;;;;;;;59.15;23.92;;;10.40;99.90;;;;;;5057103;28;20044;-95
2020/12/23 04:05:29;;;;;;;57.80;24.60;;;10.30;99.90;;;;;;5057251;28;20037;-93
2020/12/23 04:08:02;;;;;;;52.92;22.73;;;10.40;99.90;;;;;;5057538;28;20159;-93
2020/12/23 04:10:31;;;;;;;51.65;21.25;;;10.40;99.90;;;;;;5057123;28;20120;-93
2020/12/23 04:12:58;;;;;;;51.63;21.40;;;10.40;99.90;;;;;;5057750;28;20041;-92
2020/12/23 04:15:52;;;;;;;51.63;22.20;;;10.40;99.90;;;;;;5059856;28;20049;-94
2020/12/23 04:18:20;;;;;;;83.40;30.90;;;10.40;99.90;;;;;;5060424;28;20056;-93
2020/12/23 04:21:12;;;;;;;75.97;30.00;;;10.40;99.90;;;;;;5058600;28;20025;-92
2020/12/23 04:23:38;;;;;;;67.80;28.33;;;10.40;99.90;;;;;;5057397;28;20072;-92
2020/12/23 04:26:04;;;;;;;63.22;25.85;;;10.40;99.90;;;;;;5056553;28;20370;-93
2020/12/23 04:28:36;;;;;;;51.58;22.10;;;10.50;99.90;;;;;;5056892;28;20477;-92
2020/12/23 04:31:12;;;;;;;55.65;22.95;;;10.40;99.90;;;;;;5057285;28;20037;-92
2020/12/23 04:33:38;;;;;;;51.45;23.58;;;10.50;99.90;;;;;;5056002;28;20045;-92
2020/12/23 04:36:24;;;;;;;63.47;25.05;;;10.50;99.90;;;;;;5056882;28;20199;-93
2020/12/23 04:38:55;;;;;;;51.28;22.25;;;10.50;99.90;;;;;;5057050;28;20044;-93
2020/12/23 04:41:38;;;;;;;56.20;22.33;;;10.50;99.90;;;;;;5058263;28;20025;-92
2020/12/23 04:47:31;;;;;;;54.17;22.13;;;10.50;99.90;;;;;;5058130;28;20060;-94
2020/12/23 04:53:37;;;;;;;55.85;23.27;;;10.50;99.90;;;;;;5036498;28;20130;-94
2020/12/23 04:56:43;;;;;;;51.83;22.15;;;10.50;99.90;;;;;;5019384;28;20045;-93
2020/12/23 04:59:08;;;;;;;47.95;21.50;;;10.50;99.90;;;;;;5024727;28;20060;-94
2020/12/23 05:04:56;;;;;;;45.10;18.92;;;10.50;99.90;;;;;;5056179;28;20059;-93
2020/12/23 05:07:37;;;;;;;49.65;20.90;;;10.50;99.90;;;;;;5039860;28;20025;-92
2020/12/23 05:10:06;;;;;;;58.55;24.88;;;10.50;99.90;;;;;;5040282;28;20056;-93
2020/12/23 05:12:40;;;;;;;55.47;25.42;;;10.50;99.90;;;;;;5035698;28;20038;-93
2020/12/23 05:15:20;;;;;;;56.75;23.83;;;10.50;99.90;;;;;;5021802;28;20064;-93
2020/12/23 05:17:46;;;;;;;52.90;23.77;;;10.50;99.90;;;;;;5041269;28;20037;-91
2020/12/23 05:20:13;;;;;;;46.17;21.92;;;10.50;99.90;;;;;;5056230;28;20067;-92
2020/12/23 05:22:46;;;;;;;45.40;20.92;;;10.50;99.90;;;;;;5055830;28;20037;-92
2020/12/23 05:25:13;;;;;;;46.75;20.40;;;10.60;99.90;;;;;;5055045;28;20032;-91
2020/12/23 05:27:46;;;;;;;40.10;18.45;;;10.60;99.90;;;;;;5056628;28;20095;-92
2020/12/23 05:30:13;;;;;;;35.17;17.23;;;10.50;99.90;;;;;;5055402;28;20032;-93
2020/12/23 05:32:47;;;;;;;38.00;17.23;;;10.50;99.90;;;;;;5055271;28;20049;-91
2020/12/23 05:35:15;;;;;;;33.53;15.95;;;10.50;99.90;;;;;;5054893;28;20037;-93
2020/12/23 05:37:45;;;;;;;37.28;16.77;;;10.50;99.90;;;;;;5019099;28;20030;-93
2020/12/23 05:40:12;;;;;;;36.80;16.35;;;10.60;99.90;;;;;;5036065;28;20034;-92
2020/12/23 05:42:39;;;;;;;39.72;16.95;;;10.60;99.90;;;;;;5017963;28;20044;-91
2020/12/23 05:45:07;;;;;;;36.42;17.13;;;10.60;99.90;;;;;;5018051;28;20029;-92
2020/12/23 05:47:33;;;;;;;28.83;14.35;;;10.60;99.90;;;;;;5018134;28;20034;-92
2020/12/23 05:49:59;;;;;;;32.45;16.40;;;10.60;99.90;;;;;;5017913;28;20033;-92
2020/12/23 05:52:26;;;;;;;31.50;16.02;;;10.60;99.90;;;;;;5001515;28;20084;-89
2020/12/23 05:54:53;;;;;;;31.88;16.40;;;10.60;99.90;;;;;;5017978;28;20087;-91
2020/12/23 05:57:22;;;;;;;27.25;14.73;;;10.60;99.90;;;;;;5018110;28;20053;-91
2020/12/23 05:59:48;;;;;;;25.55;14.32;;;10.60;99.90;;;;;;5018027;28;20025;-91
2020/12/23 06:02:15;;;;;;;26.02;14.65;;;10.60;99.90;;;;;;5017172;28;20042;-91
2020/12/23 06:04:45;;;;;;;26.48;13.32;;;10.60;99.90;;;;;;5017608;28;20070;-91
2020/12/23 06:07:11;;;;;;;26.02;13.55;;;10.60;99.90;;;;;;5017100;28;20049;-91
2020/12/23 06:09:59;;;;;;;22.83;13.02;;;10.70;99.90;;;;;;5017077;28;20689;-93
2020/12/23 06:12:31;;;;;;;20.80;12.13;;;10.70;99.90;;;;;;5034117;28;20385;-92
2020/12/23 06:15:00;;;;;;;23.30;13.25;;;10.70;99.90;;;;;;5017210;28;20077;-93
2020/12/23 06:17:30;;;;;;;23.15;12.95;;;10.70;99.90;;;;;;5016890;28;20397;-94
2020/12/23 06:20:03;;;;;;;21.50;12.95;;;10.70;99.90;;;;;;5017260;28;20030;-94
2020/12/23 06:22:31;;;;;;;19.00;11.73;;;10.70;99.90;;;;;;5029909;28;20095;-93
2020/12/23 06:25:00;;;;;;;20.05;11.65;;;10.70;99.90;;;;;;4997253;28;20466;-92
2020/12/23 06:27:32;;;;;;;17.98;11.38;;;10.70;99.90;;;;;;4998282;28;20100;-93
2020/12/23 06:30:09;;;;;;;;;;;10.70;99.90;;;;;;5016041;28;20121;-94
2020/12/23 06:32:35;;;;;;;18.77;10.80;;;10.70;99.90;;;;;;4998678;28;20007;-93
2020/12/23 06:35:04;;;;;;;23.35;14.60;;;10.70;99.90;;;;;;4998184;28;20037;-92
2020/12/23 06:37:37;;;;;;;19.85;12.15;;;10.80;99.90;;;;;;5015736;28;20049;-94
2020/12/23 06:40:10;;;;;;;18.73;11.70;;;10.80;99.90;;;;;;4997814;28;20038;-93
2020/12/23 06:42:53;;;;;;;18.77;10.88;;;10.80;99.90;;;;;;5014917;28;20046;-92
2020/12/23 06:45:22;;;;;;;17.10;11.07;;;10.80;99.90;;;;;;5015458;28;20026;-92
2020/12/23 06:47:49;;;;;;;17.05;11.02;;;10.80;99.90;;;;;;4998351;28;20045;-92
2020/12/23 06:50:36;;;;;;;17.80;10.63;;;10.80;99.90;;;;;;4997380;28;20034;-94
2020/12/23 06:53:07;;;;;;;18.33;12.13;;;10.90;99.90;;;;;;4999305;28;20038;-93
2020/12/23 06:56:02;;;;;;;19.17;12.63;;;10.90;99.90;;;;;;4997930;28;20077;-94
2020/12/23 06:58:43;;;;;;;20.80;13.05;;;10.90;99.90;;;;;;5013770;28;20034;-95
2020/12/23 07:01:38;;;;;;;17.83;12.18;;;11.00;99.90;;;;;;4994747;28;20104;-95
2020/12/23 07:04:44;;;;;;;20.55;13.85;;;11.00;99.90;;;;;;4996402;28;20471;-94
2020/12/23 07:07:44;;;;;;;22.23;14.88;;;11.10;99.90;;;;;;4998007;28;20513;-94
2020/12/23 07:10:27;;;;;;;21.92;15.07;;;11.10;99.90;;;;;;4998206;28;20093;-93
2020/12/23 07:13:22;;;;;;;19.15;14.15;;;11.20;99.90;;;;;;4997822;28;20069;-94
2020/12/23 07:15:59;;;;;;;22.02;14.75;;;11.20;99.90;;;;;;4981215;28;20478;-94
2020/12/23 07:19:13;;;;;;;;;;;;;;;;;;;;;
2020/12/23 07:21:48;;;;;;;19.90;14.55;;;11.30;99.90;;;;;;5015559;28;20136;-94
2020/12/23 07:24:23;;;;;;;18.67;13.75;;;11.30;99.90;;;;;;5015622;28;20057;-94
2020/12/23 07:27:05;;;;;;;17.10;13.18;;;11.40;99.90;;;;;;4999488;28;20474;-94
2020/12/23 07:29:53;;;;;;;18.27;12.80;;;11.40;99.90;;;;;;5002063;28;20049;-93
2020/12/23 07:32:42;;;;;;;16.75;13.35;;;11.40;99.90;;;;;;4997475;28;20097;-93
2020/12/23 07:35:11;;;;;;;19.42;14.60;;;11.50;99.90;;;;;;5000737;28;20037;-93
2020/12/23 07:38:09;;;;;;;21.00;15.40;;;11.50;99.90;;;;;;5033889;28;20049;-93
2020/12/23 07:41:33;;;;;;;18.40;13.85;;;11.50;99.90;;;;;;5038170;28;20030;-94
2020/12/23 07:44:13;;;;;;;19.40;14.18;;;11.60;99.90;;;;;;5034594;28;20034;-93
2020/12/23 07:47:02;;;;;;;18.80;14.02;;;11.60;99.90;;;;;;5020076;28;20038;-93
2020/12/23 07:49:39;;;;;;;19.10;14.52;;;11.60;99.90;;;;;;4977103;28;20045;-94
2020/12/23 07:52:07;;;;;;;18.02;13.45;;;11.60;99.90;;;;;;4961328;28;20050;-94
2020/12/23 07:55:12;;;;;;;18.52;14.23;;;11.60;99.90;;;;;;5017237;28;20120;-92
2020/12/23 07:57:55;;;;;;;19.35;13.48;;;11.60;99.90;;;;;;5012930;28;20030;-92
2020/12/23 08:00:39;;;;;;;18.60;13.20;;;11.60;99.90;;;;;;5019910;28;20030;-93
2020/12/23 08:06:08;;;;;;;17.10;13.13;;;11.60;99.90;;;;;;5011870;28;20044;-93
2020/12/23 08:09:27;;;;;;;16.42;12.52;;;11.60;99.90;;;;;;5019797;28;20061;-93
2020/12/23 08:12:12;;;;;;;18.58;13.10;;;11.60;99.90;;;;;;5002536;28;20076;-92
2020/12/23 08:14:51;;;;;;;17.58;13.25;;;11.60;99.90;;;;;;5035684;28;20061;-91
2020/12/23 08:17:26;;;;;;;16.40;13.10;;;11.60;99.90;;;;;;5019287;28;20033;-95
2020/12/23 08:20:15;;;;;;;18.33;13.77;;;11.60;99.90;;;;;;5019603;28;20049;-92
2020/12/23 08:22:45;;;;;;;18.10;12.73;;;11.60;99.90;;;;;;5037861;28;20037;-91
2020/12/23 08:25:24;;;;;;;20.15;13.60;;;11.60;99.90;;;;;;5024009;28;20097;-92
2020/12/23 08:28:17;;;;;;;18.15;13.02;;;11.60;99.90;;;;;;5023245;28;20034;-93
2020/12/23 08:31:03;;;;;;;;;;;;;;;;;;;;;
2020/12/23 08:33:31;;;;;;;16.83;12.43;;;11.60;99.90;;;;;;5037084;28;20068;-92
2020/12/23 08:36:12;;;;;;;17.08;12.93;;;11.60;99.90;;;;;;5022629;28;20054;-93
2020/12/23 08:38:56;;;;;;;13.73;11.23;;;11.70;99.90;;;;;;5020435;28;20649;-92
2020/12/23 08:41:38;;;;;;;;;;;;;;;;;;;;;
2020/12/23 08:44:20;;;;;;;15.30;12.30;;;11.70;99.90;;;;;;5036913;28;20029;-93
2020/12/23 08:46:54;;;;;;;13.40;10.43;;;11.70;99.90;;;;;;5007153;28;20041;-93
2020/12/23 08:50:00;;;;;;;;;;;;;;;;;;;;;
2020/12/23 08:52:56;;;;;;;;;;;;;;;;;;;;;
2020/12/23 08:55:35;;;;;;;13.25;9.88;;;11.70;99.90;;;;;;5057318;28;20025;-94
2020/12/23 08:58:36;;;;;;;;;;;;;;;;;;;;;
2020/12/23 09:01:14;;;;;;;12.13;9.63;;;11.70;99.90;;;;;;5057828;28;20112;-93
2020/12/23 09:04:24;;;;;;;12.90;9.25;;;11.70;99.90;;;;;;5039936;28;20498;-93
2020/12/23 09:07:04;;;;;;;12.70;9.82;;;11.70;99.90;;;;;;5031859;28;20033;-93
2020/12/23 09:10:26;;;;;;;12.35;9.10;;;11.70;99.90;;;;;;5057868;28;20029;-93
2020/12/23 09:16:32;;;;;;;11.63;9.02;;;11.70;99.90;;;;;;4996284;28;20034;-93
2020/12/23 09:19:13;;;;;;;11.38;9.05;;;11.70;99.90;;;;;;4960864;28;20065;-93
2020/12/23 09:22:21;;;;;;;10.63;8.88;;;11.70;99.90;;;;;;5009048;28;20124;-93
2020/12/23 09:28:26;;;;;;;9.80;7.05;;;11.70;99.90;;;;;;5057427;28;20120;-93
2020/12/23 09:31:53;;;;;;;8.70;6.68;;;11.80;99.90;;;;;;5039191;28;20068;-92
2020/12/23 10:45:15;;;;;;;8.13;5.90;;;11.90;99.90;;;;;;5043723;28;20048;-93
2020/12/23 10:48:18;;;;;;;8.97;6.50;;;11.90;99.90;;;;;;5021664;28;20045;-94
2020/12/23 10:51:04;;;;;;;11.52;7.63;;;11.90;99.90;;;;;;5039215;28;20263;-93
2020/12/23 10:53:43;;;;;;;12.02;7.80;;;11.90;99.90;;;;;;5055760;28;20036;-91
2020/12/23 10:56:36;;;;;;;8.95;6.22;;;11.90;99.90;;;;;;5038099;28;20033;-92
2020/12/23 10:59:13;;;;;;;9.68;6.55;;;11.90;99.90;;;;;;5040646;28;20036;-92
2020/12/23 11:01:45;;;;;;;8.95;6.05;;;11.90;99.90;;;;;;5039245;28;20037;-91
2020/12/23 11:04:14;;;;;;;9.20;6.50;;;11.90;99.90;;;;;;5038251;28;20493;-92
2020/12/23 11:06:40;;;;;;;9.05;6.60;;;11.90;99.90;;;;;;5037423;28;20477;-92
2020/12/23 11:09:14;;;;;;;8.38;6.38;;;11.80;99.90;;;;;;5041067;28;20043;-93
2020/12/23 11:11:49;;;;;;;9.07;6.88;;;11.80;99.90;;;;;;5057701;28;20049;-93
2020/12/23 11:14:18;;;;;;;8.75;6.63;;;11.80;99.90;;;;;;5041390;28;20098;-92
2020/12/23 11:16:55;;;;;;;7.50;5.70;;;11.80;99.90;;;;;;5041599;28;20044;-90
2020/12/23 11:19:21;;;;;;;9.88;6.20;;;11.80;99.90;;;;;;5041183;28;20051;-91
2020/12/23 11:21:53;;;;;;;7.63;5.53;;;11.70;99.90;;;;;;5059797;28;20487;-91
2020/12/23 11:24:19;;;;;;;7.25;5.25;;;11.80;99.90;;;;;;5040659;28;20029;-90
2020/12/23 11:26:48;;;;;;;6.80;5.07;;;11.80;99.90;;;;;;5040209;28;20040;-92
2020/12/23 11:29:18;;;;;;;7.18;4.95;;;11.80;99.90;;;;;;5041318;28;20033;-91
2020/12/23 11:31:53;;;;;;;5.85;4.65;;;11.80;99.90;;;;;;5024921;28;20095;-91
2020/12/23 11:34:20;;;;;;;5.97;4.75;;;11.70;99.90;;;;;;5053309;28;20033;-90
2020/12/23 11:36:47;;;;;;;7.35;5.15;;;11.80;99.90;;;;;;5057904;28;20033;-90
2020/12/23 11:39:14;;;;;;;6.55;4.45;;;11.80;99.90;;;;;;5043056;28;20546;-91
2020/12/23 11:41:40;;;;;;;7.75;5.20;;;11.80;99.90;;;;;;5038197;28;20037;-91
2020/12/23 11:44:12;;;;;;;9.68;5.28;;;11.80;99.90;;;;;;5044276;28;20033;-91
2020/12/23 11:46:38;;;;;;;7.97;6.53;;;11.80;99.90;;;;;;5031232;28;20480;-93
2020/12/23 11:49:14;;;;;;;;;;;;;;;;;;;;;
2020/12/23 11:51:43;;;;;;;7.68;6.10;;;11.80;99.90;;;;;;5032460;28;20037;-91
2020/12/23 11:54:12;;;;;;;8.52;6.75;;;11.80;99.90;;;;;;5020882;28;20088;-92
2020/12/23 11:56:37;;;;;;;9.43;6.88;;;11.80;99.90;;;;;;5021076;28;20041;-92
2020/12/23 11:59:06;;;;;;;9.20;7.72;;;11.80;99.90;;;;;;5056499;28;20051;-92
2020/12/23 12:01:37;;;;;;;10.50;8.38;;;11.70;99.90;;;;;;5024627;28;20055;-92
2020/12/23 12:04:03;;;;;;;11.38;9.32;;;11.70;99.90;;;;;;5019031;28;20125;-92
2020/12/23 12:06:34;;;;;;;10.20;8.50;;;11.70;99.90;;;;;;5018410;28;20116;-93
2020/12/23 12:09:16;;;;;;;;;;;;;;;;;;;;;
2020/12/23 12:12:10;;;;;;;;;;;;;;;;;;;;;
2020/12/23 12:14:53;;;;;;;9.38;7.88;;;11.70;99.90;;;;;;5036528;28;20675;-92
2020/12/23 12:20:56;;;;;;;11.02;9.85;;;11.80;99.90;;;;;;5020366;28;20053;-91
2020/12/23 12:30:39;;;;;;;;;;;;;;;;;;;;;
2020/12/23 12:33:15;;;;;;;8.05;7.25;;;11.80;99.90;;;;;;5036357;28;20063;-92
2020/12/23 12:38:48;;;;;;;7.88;6.22;;;11.80;99.90;;;;;;5028696;28;20462;-93
2020/12/23 12:42:11;;;;;;;6.35;5.10;;;11.80;99.90;;;;;;5038145;28;20077;-94
2020/12/23 12:44:58;;;;;;;;;;;;;;;;;;;;;
2020/12/23 12:48:18;;;;;;;;;;;;;;;;;;;;;
2020/12/23 12:57:54;;;;;;;6.00;4.85;;;11.80;99.90;;;;;;4922720;29;20028;-94
2020/12/23 14:54:30;;;;;;;4.35;3.40;;;11.60;99.90;;;;;;5048561;23;20040;-85
2020/12/23 14:56:58;;;;;;;5.13;4.13;;;11.60;99.90;;;;;;5063725;28;20190;-86
2020/12/23 15:07:55;;;;;;;6.07;5.07;;;11.70;99.90;;;;;;5175315;23;20069;-95
2020/12/23 15:23:58;;;;;;;8.43;6.70;;;11.70;99.90;;;;;;4995475;28;20112;-93
2020/12/23 15:26:26;;;;;;;7.72;6.93;;;11.70;99.90;;;;;;4976087;28;20652;-94
2020/12/23 15:28:59;;;;;;;11.00;9.13;;;11.70;99.90;;;;;;4979546;28;20645;-92
2020/12/23 15:31:41;;;;;;;14.40;11.82;;;11.70;99.90;;;;;;4974038;28;20503;-93
2020/12/23 15:34:28;;;;;;;10.90;9.75;;;11.60;99.90;;;;;;4976846;28;20034;-94
2020/12/23 15:37:00;;;;;;;14.10;12.70;;;11.60;99.90;;;;;;4995946;28;20393;-94
2020/12/23 15:39:26;;;;;;;14.27;12.60;;;11.60;99.90;;;;;;5043445;23;20519;-94
2020/12/23 15:41:53;;;;;;;13.82;12.40;;;11.60;99.90;;;;;;5010829;28;20489;-93
2020/12/23 15:44:19;;;;;;;15.82;12.82;;;11.60;99.90;;;;;;5018020;28;20064;-92
2020/12/23 15:46:47;;;;;;;12.60;11.20;;;11.70;99.90;;;;;;5009152;23;20034;-94
2020/12/23 15:49:22;;;;;;;11.85;10.60;;;11.60;99.90;;;;;;5097892;22;20054;-91
2020/12/23 15:51:51;;;;;;;11.85;10.55;;;11.60;99.90;;;;;;4994786;28;20049;-91
2020/12/23 15:54:17;;;;;;;11.25;10.05;;;11.70;99.90;;;;;;4980802;28;20031;-91
2020/12/23 15:56:47;;;;;;;11.63;10.32;;;11.70;99.90;;;;;;4977997;28;20031;-90
2020/12/23 15:59:12;;;;;;;12.52;10.18;;;11.70;99.90;;;;;;4977373;28;20523;-88
2020/12/23 16:01:41;;;;;;;12.45;11.13;;;11.70;99.90;;;;;;4986039;28;20071;-92
2020/12/23 16:04:30;;;;;;;11.63;10.00;;;11.70;99.90;;;;;;4996719;28;20125;-93
2020/12/23 16:06:55;;;;;;;12.65;11.07;;;11.70;99.90;;;;;;4983292;28;20065;-90
2020/12/23 16:09:21;;;;;;;12.93;11.20;;;11.70;99.90;;;;;;4996591;28;20061;-90
2020/12/23 16:11:56;;;;;;;12.88;11.57;;;11.70;99.90;;;;;;4994775;28;20045;-91
2020/12/23 16:14:21;;;;;;;13.52;11.30;;;11.70;99.90;;;;;;4996346;28;20038;-91
2020/12/23 16:16:50;;;;;;;13.32;11.50;;;11.70;99.90;;;;;;4992585;28;20026;-92
2020/12/23 16:19:39;;;;;;;12.10;10.85;;;11.70;99.90;;;;;;4996384;28;20069;-93
2020/12/23 16:22:07;;;;;;;12.80;11.52;;;11.70;99.90;;;;;;4995153;28;20042;-90
2020/12/23 16:24:35;;;;;;;12.75;11.45;;;11.70;99.90;;;;;;4993161;28;20032;-88
2020/12/23 16:27:00;;;;;;;13.18;11.30;;;11.70;99.90;;;;;;4993700;28;20129;-86
2020/12/23 16:29:27;;;;;;;11.50;9.32;;;11.70;99.90;;;;;;5011407;28;20026;-87
2020/12/23 16:31:52;;;;;;;11.88;10.15;;;11.70;99.90;;;;;;4993736;28;20034;-88
2020/12/23 16:34:18;;;;;;;12.23;10.50;;;11.70;99.90;;;;;;5011635;28;20457;-91
2020/12/23 16:36:44;;;;;;;13.05;11.18;;;11.80;99.90;;;;;;4989315;28;20632;-86
2020/12/23 16:39:10;;;;;;;12.85;11.55;;;11.70;99.90;;;;;;4994797;28;20038;-87
2020/12/23 16:41:35;;;;;;;13.07;11.77;;;11.80;99.90;;;;;;5003438;28;20042;-90
2020/12/23 16:44:01;;;;;;;13.23;11.93;;;11.80;99.90;;;;;;4990947;28;20447;-90
2020/12/23 16:46:27;;;;;;;13.40;12.00;;;11.80;99.90;;;;;;4992415;28;20135;-88
2020/12/23 16:48:56;;;;;;;12.45;11.18;;;11.80;99.90;;;;;;4993153;28;20077;-90
2020/12/23 16:51:22;;;;;;;13.55;12.15;;;11.80;99.90;;;;;;4991406;28;20117;-91
2020/12/23 16:53:47;;;;;;;13.23;11.85;;;11.80;99.90;;;;;;4997835;28;20053;-89
2020/12/23 16:56:14;;;;;;;13.38;12.00;;;11.80;99.90;;;;;;5041529;23;20463;-91
2020/12/23 16:58:40;;;;;;;14.20;12.70;;;11.80;99.90;;;;;;5033355;28;20172;-88
2020/12/23 17:01:11;;;;;;;15.00;12.50;;;11.80;99.90;;;;;;5020951;28;20112;-88
2020/12/23 17:03:37;;;;;;;13.65;12.23;;;11.80;99.90;;;;;;5019333;28;20037;-90
2020/12/23 17:06:12;;;;;;;14.27;12.25;;;11.80;99.90;;;;;;5025817;22;20124;-93
2020/12/23 17:08:38;;;;;;;12.82;11.52;;;11.90;99.90;;;;;;4997641;28;20157;-90
2020/12/23 17:11:11;;;;;;;13.23;11.82;;;11.80;99.90;;;;;;4998689;28;20577;-91
2020/12/23 17:13:48;;;;;;;;;;;11.80;99.90;;;;;;5000453;28;20050;-92
2020/12/23 17:16:14;;;;;;;11.02;9.93;;;11.80;99.90;;;;;;5003403;28;19909;-92
2020/12/23 17:18:48;;;;;;;11.82;10.38;;;11.80;99.90;;;;;;4986885;28;20088;-93
2020/12/23 17:24:44;;;;;;;9.90;8.90;;;11.80;99.90;;;;;;4965492;28;20039;-91
2020/12/23 17:27:36;;;;;;;10.93;9.45;;;11.80;99.90;;;;;;4983732;28;20078;-90
2020/12/23 17:30:08;;;;;;;9.18;8.27;;;11.80;99.90;;;;;;4967054;28;20045;-91
2020/12/23 17:32:45;;;;;;;9.95;8.95;;;11.80;99.90;;;;;;4976485;28;20042;-93
2020/12/23 17:35:11;;;;;;;11.18;10.07;;;11.80;99.90;;;;;;4987365;28;20030;-90
2020/12/23 17:37:58;;;;;;;10.95;9.68;;;11.80;99.90;;;;;;4990341;28;20068;-92
2020/12/23 17:46:47;;;;;;;;;;;;;;;;;;;;;
2020/12/23 17:49:13;;;;;;;8.57;7.72;;;11.80;99.90;;;;;;4976077;28;20075;-90
2020/12/23 17:51:40;;;;;;;9.48;8.48;;;11.80;99.90;;;;;;4954692;28;20065;-90